createdAt,value
2017-12-30T00:00:31.724Z,76.85
2017-12-30T00:02:59.201Z,76.64
2017-12-30T00:05:26.645Z,76.65
2017-12-30T00:07:54.076Z,77.02
2017-12-30T00:10:21.482Z,76.96
2017-12-30T00:12:48.899Z,76.95
2017-12-30T00:15:16.336Z,77.10
2017-12-30T00:17:43.828Z,76.80
2017-12-30T00:20:11.299Z,76.93
2017-12-30T00:22:38.751Z,76.91
2017-12-30T00:25:06.166Z,76.93
2017-12-30T00:27:33.575Z,77.28
2017-12-30T00:30:01.041Z,77.15
2017-12-30T00:32:28.456Z,77.34
2017-12-30T00:34:55.950Z,77.47
2017-12-30T00:37:23.380Z,77.67
2017-12-30T00:39:50.795Z,77.69
2017-12-30T00:42:18.279Z,77.71
2017-12-30T00:44:45.767Z,78.17
2017-12-30T00:47:13.188Z,77.92
2017-12-30T00:49:40.599Z,78.01
2017-12-30T00:52:08.027Z,78.29
2017-12-30T00:54:35.434Z,78.22
2017-12-30T00:57:02.851Z,78.03
2017-12-30T00:59:30.294Z,78.13
2017-12-30T01:01:57.692Z,78.25
2017-12-30T01:04:25.127Z,78.35
2017-12-30T01:06:52.534Z,78.37
2017-12-30T01:09:19.942Z,78.22
2017-12-30T01:11:47.386Z,78.19
2017-12-30T01:14:14.794Z,78.14
2017-12-30T01:16:42.217Z,78.13
2017-12-30T01:19:09.701Z,78.53
2017-12-30T01:21:37.110Z,78.17
2017-12-30T01:24:04.569Z,78.02
2017-12-30T01:26:32.028Z,78.05
2017-12-30T01:28:59.441Z,77.94
2017-12-30T01:31:26.847Z,77.95
2017-12-30T01:33:54.291Z,77.79
2017-12-30T01:36:21.702Z,77.80
2017-12-30T01:38:49.102Z,77.60
2017-12-30T01:41:16.552Z,77.60
2017-12-30T01:43:43.963Z,77.52
2017-12-30T01:46:11.470Z,77.69
2017-12-30T01:51:39.804Z,77.69
2017-12-30T01:54:07.198Z,77.62
2017-12-30T01:56:34.607Z,77.52
2017-12-30T01:59:02.011Z,77.41
2017-12-30T02:01:29.450Z,77.31
2017-12-30T02:03:56.892Z,77.27
2017-12-30T02:06:24.296Z,77.22
2017-12-30T02:08:51.763Z,77.14
2017-12-30T02:11:19.212Z,77.19
2017-12-30T02:13:46.615Z,77.13
2017-12-30T02:16:14.056Z,76.97
2017-12-30T02:18:41.470Z,76.96
2017-12-30T02:21:08.871Z,76.79
2017-12-30T02:23:36.309Z,76.63
2017-12-30T02:26:03.710Z,76.43
2017-12-30T02:28:31.219Z,76.64
2017-12-30T02:30:58.669Z,76.50
2017-12-30T02:33:26.078Z,76.57
2017-12-30T02:35:53.592Z,76.52
2017-12-30T02:38:21.044Z,76.58
2017-12-30T02:40:48.454Z,76.56
2017-12-30T02:43:15.855Z,76.47
2017-12-30T02:45:43.285Z,76.58
2017-12-30T02:48:10.727Z,77.24
2017-12-30T02:50:38.136Z,76.74
2017-12-30T02:53:05.539Z,76.73
2017-12-30T02:55:32.959Z,76.66
2017-12-30T02:58:00.376Z,76.60
2017-12-30T03:00:27.851Z,76.69
2017-12-30T03:02:55.279Z,76.53
2017-12-30T03:05:22.687Z,76.31
2017-12-30T03:07:50.119Z,76.62
2017-12-30T03:10:17.571Z,76.59
2017-12-30T03:12:44.970Z,76.43
2017-12-30T03:15:12.394Z,76.27
2017-12-30T03:17:39.845Z,76.41
2017-12-30T03:20:07.262Z,76.55
2017-12-30T03:22:34.758Z,76.37
2017-12-30T03:25:02.178Z,76.35
2017-12-30T03:27:29.594Z,76.08
2017-12-30T03:29:57.032Z,76.06
2017-12-30T03:32:24.435Z,76.06
2017-12-30T03:34:51.849Z,75.91
2017-12-30T03:37:19.287Z,75.51
2017-12-30T03:39:46.691Z,75.03
2017-12-30T03:42:14.090Z,75.13
2017-12-30T03:44:41.576Z,74.99
2017-12-30T03:47:08.983Z,75.06
2017-12-30T03:49:36.396Z,74.99
2017-12-30T03:52:03.836Z,75.17
2017-12-30T03:54:31.292Z,75.35
2017-12-30T03:56:58.702Z,75.36
2017-12-30T03:59:26.103Z,75.56
2017-12-30T04:01:53.554Z,75.56
2017-12-30T04:04:21.023Z,75.37
2017-12-30T04:06:48.491Z,75.37
2017-12-30T04:09:15.889Z,75.29
2017-12-30T04:11:43.387Z,75.58
2017-12-30T04:14:10.839Z,75.98
2017-12-30T04:16:38.303Z,76.12
2017-12-30T04:19:05.760Z,76.10
2017-12-30T04:21:33.192Z,76.22
2017-12-30T04:24:00.670Z,76.00
2017-12-30T04:26:28.090Z,75.89
2017-12-30T04:28:55.515Z,76.04
2017-12-30T04:31:22.927Z,75.95
2017-12-30T04:33:50.396Z,75.71
2017-12-30T04:36:17.823Z,75.84
2017-12-30T04:38:45.310Z,76.04
2017-12-30T04:41:12.774Z,75.85
2017-12-30T04:43:40.224Z,76.00
2017-12-30T04:46:07.663Z,75.75
2017-12-30T04:48:35.087Z,75.80
2017-12-30T04:51:02.491Z,75.78
2017-12-30T04:53:29.908Z,75.81
2017-12-30T04:55:57.330Z,75.82
2017-12-30T04:58:24.758Z,75.71
2017-12-30T05:00:52.155Z,75.51
2017-12-30T05:03:19.592Z,75.54
2017-12-30T05:05:46.986Z,75.52
2017-12-30T05:08:14.393Z,75.38
2017-12-30T05:10:41.801Z,75.43
2017-12-30T05:13:09.309Z,75.48
2017-12-30T05:15:36.723Z,75.53
2017-12-30T05:18:04.202Z,75.78
2017-12-30T05:20:31.612Z,75.66
2017-12-30T05:22:59.021Z,75.69
2017-12-30T05:25:26.439Z,75.76
2017-12-30T05:27:53.839Z,75.76
2017-12-30T05:30:21.303Z,75.52
2017-12-30T05:32:48.707Z,75.53
2017-12-30T05:35:16.212Z,75.62
2017-12-30T05:37:43.656Z,75.51
2017-12-30T05:40:11.052Z,75.89
2017-12-30T05:42:38.461Z,75.71
2017-12-30T05:45:05.892Z,75.67
2017-12-30T05:47:33.302Z,75.91
2017-12-30T05:50:00.706Z,75.91
2017-12-30T05:52:28.120Z,76.09
2017-12-30T05:54:55.516Z,76.38
2017-12-30T05:57:22.931Z,76.48
2017-12-30T05:59:50.337Z,76.55
2017-12-30T06:02:17.834Z,76.53
2017-12-30T06:04:45.241Z,76.60
2017-12-30T06:07:12.738Z,76.64
2017-12-30T06:09:40.160Z,76.70
2017-12-30T06:12:07.651Z,76.75
2017-12-30T06:14:35.102Z,76.95
2017-12-30T06:17:02.517Z,76.93
2017-12-30T06:19:29.916Z,76.87
2017-12-30T06:21:57.340Z,76.70
2017-12-30T06:24:24.754Z,76.70
2017-12-30T06:26:52.146Z,76.78
2017-12-30T06:29:19.578Z,76.98
2017-12-30T06:31:47.010Z,77.04
2017-12-30T06:34:14.418Z,76.95
2017-12-30T06:36:41.905Z,76.85
2017-12-30T06:39:09.268Z,77.10
2017-12-30T06:41:36.661Z,77.12
2017-12-30T06:44:04.087Z,77.15
2017-12-30T06:46:31.492Z,77.18
2017-12-30T06:48:58.990Z,77.24
2017-12-30T06:51:26.448Z,77.17
2017-12-30T06:53:53.879Z,77.48
2017-12-30T06:56:21.283Z,77.75
2017-12-30T06:58:48.688Z,78.04
2017-12-30T07:01:16.166Z,78.25
2017-12-30T07:03:43.631Z,78.38
2017-12-30T07:06:11.065Z,78.52
2017-12-30T07:08:38.568Z,78.50
2017-12-30T07:11:05.963Z,77.97
2017-12-30T07:13:33.460Z,78.02
2017-12-30T07:16:00.887Z,78.61
2017-12-30T07:18:28.295Z,79.01
2017-12-30T07:20:55.705Z,79.26
2017-12-30T07:23:23.134Z,79.44
2017-12-30T07:25:50.547Z,79.70
2017-12-30T07:28:17.958Z,79.79
2017-12-30T07:30:45.366Z,79.60
2017-12-30T07:33:12.787Z,79.70
2017-12-30T07:35:40.215Z,79.93
2017-12-30T07:38:07.622Z,79.82
2017-12-30T07:40:35.039Z,80.02
2017-12-30T07:43:02.531Z,79.97
2017-12-30T07:45:29.930Z,80.03
2017-12-30T07:47:57.346Z,80.13
2017-12-30T07:50:24.787Z,80.33
2017-12-30T07:52:52.183Z,80.40
2017-12-30T07:55:19.616Z,80.45
2017-12-30T07:57:47.065Z,80.68
2017-12-30T08:00:14.471Z,80.81
2017-12-30T08:02:41.988Z,80.51
2017-12-30T08:05:09.445Z,80.62
2017-12-30T08:07:36.903Z,80.82
2017-12-30T08:10:04.322Z,80.86
2017-12-30T08:12:31.714Z,80.74
2017-12-30T08:14:59.179Z,80.66
2017-12-30T08:17:26.582Z,80.72
2017-12-30T08:19:53.988Z,80.66
2017-12-30T08:22:21.402Z,80.59
2017-12-30T08:24:48.798Z,80.31
2017-12-30T08:27:16.215Z,80.26
2017-12-30T08:29:43.703Z,79.88
2017-12-30T08:32:11.108Z,79.97
2017-12-30T08:34:38.625Z,79.84
2017-12-30T08:37:06.038Z,80.03
2017-12-30T08:39:33.447Z,80.14
2017-12-30T08:42:00.882Z,80.20
2017-12-30T08:44:28.310Z,80.11
2017-12-30T08:46:55.742Z,79.97
2017-12-30T08:49:23.142Z,80.25
2017-12-30T08:51:50.570Z,80.25
2017-12-30T08:54:18.067Z,80.14
2017-12-30T08:56:45.522Z,80.23
2017-12-30T08:59:13.073Z,79.98
2017-12-30T09:01:40.469Z,79.82
2017-12-30T09:04:07.863Z,80.03
2017-12-30T09:06:35.450Z,79.99
2017-12-30T09:09:02.851Z,79.73
2017-12-30T09:11:30.273Z,79.52
2017-12-30T09:13:57.823Z,79.42
2017-12-30T09:16:25.248Z,79.25
2017-12-30T09:18:52.638Z,79.04
2017-12-30T09:21:20.054Z,79.10
2017-12-30T09:23:47.478Z,79.07
2017-12-30T09:26:14.883Z,78.64
2017-12-30T09:28:42.282Z,78.34
2017-12-30T09:31:09.752Z,78.07
2017-12-30T09:33:37.150Z,78.02
2017-12-30T09:36:04.556Z,77.97
2017-12-30T09:38:31.983Z,78.03
2017-12-30T09:40:59.441Z,78.03
2017-12-30T09:43:26.902Z,78.15
2017-12-30T09:45:54.316Z,77.93
2017-12-30T09:48:21.763Z,77.82
2017-12-30T09:50:49.167Z,77.88
2017-12-30T09:53:16.570Z,77.98
2017-12-30T09:55:44.072Z,77.96
2017-12-30T09:58:11.466Z,78.01
2017-12-30T10:00:38.917Z,77.92
2017-12-30T10:03:06.342Z,77.75
2017-12-30T10:05:33.805Z,77.97
2017-12-30T10:08:01.267Z,77.68
2017-12-30T10:10:28.663Z,77.47
2017-12-30T10:12:56.066Z,77.20
2017-12-30T10:15:23.495Z,76.68
2017-12-30T10:17:50.900Z,76.33
2017-12-30T10:20:18.344Z,76.06
2017-12-30T10:22:45.757Z,75.79
2017-12-30T10:25:13.149Z,75.52
2017-12-30T10:27:40.571Z,75.43
2017-12-30T10:30:07.975Z,75.40
2017-12-30T10:32:35.433Z,75.28
2017-12-30T10:35:02.846Z,75.27
2017-12-30T10:37:30.343Z,74.99
2017-12-30T10:39:57.778Z,75.09
2017-12-30T10:42:25.182Z,75.04
2017-12-30T10:44:52.804Z,75.17
2017-12-30T10:47:20.216Z,75.24
2017-12-30T10:49:47.618Z,74.97
2017-12-30T10:52:15.087Z,74.99
2017-12-30T10:54:42.518Z,75.22
2017-12-30T10:57:09.919Z,75.30
2017-12-30T10:59:37.341Z,75.47
2017-12-30T11:02:04.820Z,75.49
2017-12-30T11:04:32.214Z,75.62
2017-12-30T11:06:59.618Z,75.64
2017-12-30T11:09:27.895Z,75.66
2017-12-30T11:11:55.299Z,75.69
2017-12-30T11:14:22.695Z,75.64
2017-12-30T11:16:50.106Z,75.55
2017-12-30T11:19:17.560Z,75.67
2017-12-30T11:21:44.912Z,75.88
2017-12-30T11:24:12.351Z,75.92
2017-12-30T11:26:39.792Z,75.68
2017-12-30T11:29:07.218Z,75.64
2017-12-30T11:31:34.628Z,75.61
2017-12-30T11:34:02.016Z,76.27
2017-12-30T11:36:29.563Z,74.80
2017-12-30T11:38:56.955Z,74.28
2017-12-30T11:41:24.365Z,75.00
2017-12-30T11:43:51.799Z,75.02
2017-12-30T11:46:19.338Z,75.22
2017-12-30T11:48:46.739Z,75.67
2017-12-30T11:51:14.141Z,75.95
2017-12-30T11:53:41.552Z,75.90
2017-12-30T11:56:09.063Z,75.80
2017-12-30T11:58:36.461Z,75.70
2017-12-30T12:01:03.874Z,75.56
2017-12-30T12:03:31.295Z,75.58
2017-12-30T12:05:58.701Z,75.88
2017-12-30T12:08:26.135Z,76.00
2017-12-30T12:10:53.598Z,76.17
2017-12-30T12:13:21.062Z,76.12
2017-12-30T12:15:48.460Z,76.10
2017-12-30T12:18:15.978Z,76.25
2017-12-30T12:20:43.375Z,76.27
2017-12-30T12:23:10.879Z,76.07
2017-12-30T12:25:38.298Z,76.33
2017-12-30T12:28:05.699Z,76.51
2017-12-30T12:30:33.103Z,76.47
2017-12-30T12:33:00.523Z,76.87
2017-12-30T12:35:27.967Z,77.00
2017-12-30T12:37:55.382Z,76.91
2017-12-30T12:40:22.875Z,77.01
2017-12-30T12:42:50.274Z,77.04
2017-12-30T12:45:17.690Z,77.24
2017-12-30T12:47:45.093Z,77.34
2017-12-30T12:50:12.502Z,77.28
2017-12-30T12:52:39.963Z,77.32
2017-12-30T12:55:07.358Z,77.00
2017-12-30T12:57:34.784Z,77.09
2017-12-30T13:00:02.197Z,77.03
2017-12-30T13:02:29.607Z,76.90
2017-12-30T13:04:57.023Z,76.75
2017-12-30T13:07:24.468Z,76.61
2017-12-30T13:09:51.874Z,76.38
2017-12-30T13:12:19.275Z,76.16
2017-12-30T13:14:46.870Z,76.17
2017-12-30T13:17:14.267Z,76.00
2017-12-30T13:19:41.684Z,76.02
2017-12-30T13:22:09.109Z,75.91
2017-12-30T13:24:36.510Z,76.02
2017-12-30T13:27:03.910Z,75.96
2017-12-30T13:29:31.338Z,76.16
2017-12-30T13:31:58.754Z,76.24
2017-12-30T13:34:26.213Z,76.32
2017-12-30T13:36:53.614Z,76.22
2017-12-30T13:39:21.030Z,76.33
2017-12-30T13:41:48.467Z,76.19
2017-12-30T13:44:15.872Z,76.11
2017-12-30T13:46:43.279Z,75.71
2017-12-30T13:49:10.723Z,75.59
2017-12-30T13:51:38.224Z,75.35
2017-12-30T13:54:05.624Z,75.30
2017-12-30T13:56:33.134Z,75.70
2017-12-30T13:59:00.535Z,75.63
2017-12-30T14:01:27.926Z,76.09
2017-12-30T14:03:55.371Z,76.05
2017-12-30T14:06:22.845Z,75.68
2017-12-30T14:08:50.311Z,75.91
2017-12-30T14:11:17.730Z,75.85
2017-12-30T14:13:45.139Z,75.53
2017-12-30T14:16:12.578Z,75.92
2017-12-30T14:18:39.996Z,76.09
2017-12-30T14:21:07.391Z,76.50
2017-12-30T14:23:34.851Z,77.07
2017-12-30T14:26:02.319Z,78.17
2017-12-30T14:28:29.747Z,79.02
2017-12-30T14:30:57.184Z,80.78
2017-12-30T14:33:24.583Z,81.65
2017-12-30T14:35:52.016Z,82.76
2017-12-30T14:38:19.455Z,83.82
2017-12-30T14:40:46.860Z,84.63
2017-12-30T14:43:14.275Z,85.54
2017-12-30T14:45:41.702Z,86.26
2017-12-30T14:48:09.111Z,86.33
2017-12-30T14:50:36.516Z,86.84
2017-12-30T14:53:03.942Z,87.52
2017-12-30T14:55:31.355Z,87.92
2017-12-30T14:57:58.758Z,87.96
2017-12-30T15:00:26.187Z,88.33
2017-12-30T15:02:53.599Z,88.77
2017-12-30T15:05:21.101Z,88.87
2017-12-30T15:07:48.706Z,89.18
2017-12-30T15:10:16.125Z,89.58
2017-12-30T15:12:43.598Z,89.39
2017-12-30T15:15:11.046Z,89.65
2017-12-30T15:17:38.465Z,89.98
2017-12-30T15:20:05.880Z,90.30
2017-12-30T15:22:33.308Z,90.26
2017-12-30T15:25:00.727Z,90.72
2017-12-30T15:27:28.149Z,91.06
2017-12-30T15:29:55.595Z,91.58
2017-12-30T15:32:23.006Z,92.00
2017-12-30T15:34:50.443Z,91.95
2017-12-30T15:37:17.846Z,92.22
2017-12-30T15:39:45.323Z,92.32
2017-12-30T15:42:12.859Z,92.61
2017-12-30T15:44:40.260Z,92.78
2017-12-30T15:47:07.777Z,92.94
2017-12-30T15:49:35.260Z,93.03
2017-12-30T15:52:02.671Z,93.13
2017-12-30T15:54:30.118Z,93.08
2017-12-30T15:56:57.535Z,93.17
2017-12-30T15:59:24.946Z,93.29
2017-12-30T16:01:52.383Z,93.12
2017-12-30T16:04:19.882Z,93.24
2017-12-30T16:06:47.318Z,93.26
2017-12-30T16:09:15.687Z,93.15
2017-12-30T16:11:43.119Z,93.23
2017-12-30T16:14:10.562Z,93.44
2017-12-30T16:16:37.966Z,93.48
2017-12-30T16:19:05.382Z,93.44
2017-12-30T16:21:32.794Z,93.38
2017-12-30T16:24:00.214Z,93.44
2017-12-30T16:26:27.722Z,93.49
2017-12-30T16:28:55.182Z,93.42
2017-12-30T16:31:22.841Z,93.67
2017-12-30T16:33:50.252Z,93.75
2017-12-30T16:36:17.694Z,93.73
2017-12-30T16:38:45.131Z,93.71
2017-12-30T16:41:12.553Z,93.60
2017-12-30T16:43:39.950Z,93.58
2017-12-30T16:46:07.597Z,93.74
2017-12-30T16:48:35.050Z,93.80
2017-12-30T16:51:02.471Z,93.61
2017-12-30T16:53:29.895Z,93.76
2017-12-30T16:55:57.311Z,93.81
2017-12-30T16:58:24.723Z,93.82
2017-12-30T17:00:52.193Z,93.99
2017-12-30T17:03:19.703Z,94.00
2017-12-30T17:05:47.111Z,94.02
2017-12-30T17:08:14.542Z,93.98
2017-12-30T17:10:41.954Z,94.08
2017-12-30T17:13:09.356Z,94.13
2017-12-30T17:15:36.787Z,94.09
2017-12-30T17:18:04.210Z,93.90
2017-12-30T17:20:31.617Z,93.96
2017-12-30T17:22:59.038Z,94.04
2017-12-30T17:25:26.466Z,93.98
2017-12-30T17:27:54.055Z,94.10
2017-12-30T17:30:21.630Z,94.20
2017-12-30T17:32:49.072Z,94.17
2017-12-30T17:35:16.487Z,94.12
2017-12-30T17:37:43.982Z,94.12
2017-12-30T17:40:11.727Z,94.10
2017-12-30T17:42:39.119Z,94.08
2017-12-30T17:45:06.531Z,94.12
2017-12-30T17:47:33.975Z,94.19
2017-12-30T17:50:01.491Z,94.29
2017-12-30T17:52:28.929Z,94.47
2017-12-30T17:54:56.341Z,94.62
2017-12-30T17:57:23.751Z,94.77
2017-12-30T17:59:51.260Z,94.89
2017-12-30T18:02:18.656Z,95.06
2017-12-30T18:04:46.064Z,95.07
2017-12-30T18:07:13.491Z,94.97
2017-12-30T18:09:40.894Z,94.88
2017-12-30T18:12:08.306Z,95.00
2017-12-30T18:14:35.876Z,95.11
2017-12-30T18:17:03.287Z,95.19
2017-12-30T18:19:30.701Z,95.23
2017-12-30T18:21:58.219Z,95.24
2017-12-30T18:24:25.649Z,95.22
2017-12-30T18:26:53.064Z,95.16
2017-12-30T18:29:20.475Z,95.11
2017-12-30T18:31:47.903Z,95.04
2017-12-30T18:34:15.317Z,95.06
2017-12-30T18:36:42.750Z,95.16
2017-12-30T18:39:10.203Z,95.16
2017-12-30T18:41:37.644Z,95.17
2017-12-30T18:44:05.071Z,95.06
2017-12-30T18:46:32.581Z,94.92
2017-12-30T18:49:00.144Z,94.87
2017-12-30T18:51:28.100Z,94.80
2017-12-30T18:53:55.978Z,94.69
2017-12-30T18:56:23.399Z,94.65
2017-12-30T18:58:50.816Z,94.60
2017-12-30T19:01:18.238Z,94.61
2017-12-30T19:03:45.726Z,94.57
2017-12-30T19:06:13.598Z,94.47
2017-12-30T19:08:41.028Z,94.32
2017-12-30T19:11:08.526Z,94.23
2017-12-30T19:13:35.962Z,94.13
2017-12-30T19:18:37.119Z,93.81
2017-12-30T19:21:04.573Z,93.71
2017-12-30T19:23:31.964Z,93.79
2017-12-30T19:25:59.384Z,93.76
2017-12-30T19:28:26.856Z,93.76
2017-12-30T19:30:54.271Z,93.81
2017-12-30T19:33:21.689Z,93.83
2017-12-30T19:35:49.171Z,93.83
2017-12-30T19:38:16.636Z,93.99
2017-12-30T19:40:44.047Z,94.17
2017-12-30T19:43:11.466Z,94.31
2017-12-30T19:45:38.901Z,94.21
2017-12-30T19:48:06.414Z,94.21
2017-12-30T19:50:33.810Z,94.34
2017-12-30T19:53:01.238Z,94.39
2017-12-30T19:55:28.654Z,94.48
2017-12-30T19:57:56.154Z,94.47
2017-12-30T20:00:23.582Z,94.58
2017-12-30T20:02:51.024Z,94.55
2017-12-30T20:05:18.429Z,94.15
2017-12-30T20:07:45.871Z,93.73
2017-12-30T20:10:13.305Z,93.23
2017-12-30T20:12:40.792Z,93.06
2017-12-30T20:15:08.319Z,92.87
2017-12-30T20:17:35.752Z,92.54
2017-12-30T20:20:03.226Z,92.36
2017-12-30T20:22:30.692Z,92.48
2017-12-30T20:24:58.112Z,92.54
2017-12-30T20:27:25.540Z,92.51
2017-12-30T20:29:53.005Z,92.68
2017-12-30T20:32:20.452Z,92.74
2017-12-30T20:34:47.863Z,92.66
2017-12-30T20:37:15.332Z,92.34
2017-12-30T20:39:42.838Z,92.49
2017-12-30T20:42:10.250Z,92.54
2017-12-30T20:44:37.669Z,92.36
2017-12-30T20:47:05.078Z,92.37
2017-12-30T20:49:32.491Z,92.52
2017-12-30T20:51:59.915Z,91.97
2017-12-30T20:54:27.362Z,91.48
2017-12-30T20:56:54.762Z,91.19
2017-12-30T20:59:22.179Z,91.22
2017-12-30T21:01:49.624Z,91.17
2017-12-30T21:04:17.027Z,90.99
2017-12-30T21:06:44.435Z,90.84
2017-12-30T21:09:11.859Z,90.93
2017-12-30T21:11:39.262Z,90.87
2017-12-30T21:14:06.679Z,90.85
2017-12-30T21:16:34.133Z,90.73
2017-12-30T21:19:01.555Z,90.80
2017-12-30T21:21:29.022Z,90.77
2017-12-30T21:23:56.426Z,90.37
2017-12-30T21:26:23.915Z,90.04
2017-12-30T21:28:51.652Z,89.72
2017-12-30T21:31:19.070Z,89.25
2017-12-30T21:33:46.499Z,89.08
2017-12-30T21:36:13.910Z,88.65
2017-12-30T21:38:41.339Z,88.83
2017-12-30T21:41:08.784Z,88.98
2017-12-30T21:43:36.192Z,88.98
2017-12-30T21:46:03.599Z,89.14
2017-12-30T21:48:31.058Z,89.57
2017-12-30T21:50:58.455Z,89.21
2017-12-30T21:53:25.905Z,89.30
2017-12-30T21:55:53.317Z,89.50
2017-12-30T21:58:20.759Z,89.17
2017-12-30T22:00:48.162Z,88.85
2017-12-30T22:03:15.571Z,88.68
2017-12-30T22:05:43.009Z,88.68
2017-12-30T22:08:10.414Z,88.73
2017-12-30T22:10:37.890Z,88.76
2017-12-30T22:13:05.342Z,88.69
2017-12-30T22:15:32.778Z,88.42
2017-12-30T22:18:00.174Z,88.39
2017-12-30T22:20:27.588Z,88.02
2017-12-30T22:22:55.078Z,87.65
2017-12-30T22:25:22.491Z,87.64
2017-12-30T22:27:49.986Z,87.48
2017-12-30T22:30:17.390Z,87.60
2017-12-30T22:32:44.798Z,87.25
2017-12-30T22:35:12.240Z,86.57
2017-12-30T22:37:39.639Z,86.67
2017-12-30T22:40:07.066Z,86.44
2017-12-30T22:42:34.479Z,86.02
2017-12-30T22:45:01.880Z,85.68
2017-12-30T22:47:29.286Z,85.70
2017-12-30T22:49:56.723Z,84.80
2017-12-30T22:52:24.144Z,84.39
2017-12-30T22:54:51.543Z,84.38
2017-12-30T22:57:18.991Z,84.34
2017-12-30T22:59:46.394Z,83.63
2017-12-30T23:02:14.027Z,83.53
2017-12-30T23:04:41.442Z,83.38
2017-12-30T23:07:08.977Z,82.90
2017-12-30T23:09:36.424Z,82.58
2017-12-30T23:12:03.831Z,82.80
2017-12-30T23:14:31.258Z,82.59
2017-12-30T23:16:58.711Z,82.03
2017-12-30T23:19:26.158Z,81.36
2017-12-30T23:21:53.583Z,80.84
2017-12-30T23:24:20.982Z,80.03
2017-12-30T23:26:48.419Z,79.44
2017-12-30T23:29:15.848Z,79.33
2017-12-30T23:31:43.342Z,78.50
2017-12-30T23:34:10.739Z,77.64
2017-12-30T23:36:38.184Z,77.43
2017-12-30T23:39:05.578Z,77.16
2017-12-30T23:41:33.003Z,77.08
2017-12-30T23:44:00.420Z,77.09
2017-12-30T23:46:27.821Z,77.24
2017-12-30T23:48:55.247Z,77.47
2017-12-30T23:51:22.658Z,77.39
2017-12-30T23:53:50.089Z,77.01
2017-12-30T23:56:17.482Z,76.88
2017-12-30T23:58:44.885Z,76.97
